Ofertas de vuelos a Natal

Encontranos en
En el mes de
SalidaRegresoDíasConexionesDisp.
Mie 02/09/20202020-09-02Mie 30/09/20202020-09-3028ConexionesVer disponibilidad>09https://an.despegar.com/ad/1040?q=shop%2Fflights%2Fresults%2Froundtrip%2FBUE%2FNAT%2F2020-09-02%2F2020-09-30%2F1%2F0%2F0
Sab 05/09/20202020-09-05Dom 27/09/20202020-09-2722ConexionesVer disponibilidad>09https://an.despegar.com/ad/1040?q=shop%2Fflights%2Fresults%2Froundtrip%2FBUE%2FNAT%2F2020-09-05%2F2020-09-27%2F1%2F0%2F0
Sab 05/09/20202020-09-05Mie 23/09/20202020-09-2318ConexionesVer disponibilidad>09https://an.despegar.com/ad/1040?q=shop%2Fflights%2Fresults%2Froundtrip%2FBUE%2FNAT%2F2020-09-05%2F2020-09-23%2F1%2F0%2F0
Lun 05/10/20202020-10-05Sab 17/10/20202020-10-1712ConexionesVer disponibilidad>10https://an.despegar.com/ad/1040?q=shop%2Fflights%2Fresults%2Froundtrip%2FBUE%2FNAT%2F2020-10-05%2F2020-10-17%2F1%2F0%2F0
Lun 05/10/20202020-10-05Mar 27/10/20202020-10-2722ConexionesVer disponibilidad>10https://an.despegar.com/ad/1040?q=shop%2Fflights%2Fresults%2Froundtrip%2FBUE%2FNAT%2F2020-10-05%2F2020-10-27%2F1%2F0%2F0
Lun 05/10/20202020-10-05Mar 13/10/20202020-10-138ConexionesVer disponibilidad>10https://an.despegar.com/ad/1040?q=shop%2Fflights%2Fresults%2Froundtrip%2FBUE%2FNAT%2F2020-10-05%2F2020-10-13%2F1%2F0%2F0
Lun 05/10/20202020-10-05Dom 25/10/20202020-10-2520ConexionesVer disponibilidad>10https://an.despegar.com/ad/1040?q=shop%2Fflights%2Fresults%2Froundtrip%2FBUE%2FNAT%2F2020-10-05%2F2020-10-25%2F1%2F0%2F0
Mar 03/11/20202020-11-03Jue 19/11/20202020-11-1916ConexionesVer disponibilidad>11https://an.despegar.com/ad/1040?q=shop%2Fflights%2Fresults%2Froundtrip%2FBUE%2FNAT%2F2020-11-03%2F2020-11-19%2F1%2F0%2F0
Mar 03/11/20202020-11-03Lun 09/11/20202020-11-096ConexionesVer disponibilidad>11https://an.despegar.com/ad/1040?q=shop%2Fflights%2Fresults%2Froundtrip%2FBUE%2FNAT%2F2020-11-03%2F2020-11-09%2F1%2F0%2F0
Mie 04/11/20202020-11-04Dom 22/11/20202020-11-2218ConexionesVer disponibilidad>11https://an.despegar.com/ad/1040?q=shop%2Fflights%2Fresults%2Froundtrip%2FBUE%2FNAT%2F2020-11-04%2F2020-11-22%2F1%2F0%2F0
Mie 04/11/20202020-11-04Mar 10/11/20202020-11-106ConexionesVer disponibilidad>11https://an.despegar.com/ad/1040?q=shop%2Fflights%2Fresults%2Froundtrip%2FBUE%2FNAT%2F2020-11-04%2F2020-11-10%2F1%2F0%2F0
Mie 04/11/20202020-11-04Jue 26/11/20202020-11-2622ConexionesVer disponibilidad>11https://an.despegar.com/ad/1040?q=shop%2Fflights%2Fresults%2Froundtrip%2FBUE%2FNAT%2F2020-11-04%2F2020-11-26%2F1%2F0%2F0
Mie 04/11/20202020-11-04Mie 18/11/20202020-11-1814ConexionesVer disponibilidad>11https://an.despegar.com/ad/1040?q=shop%2Fflights%2Fresults%2Froundtrip%2FBUE%2FNAT%2F2020-11-04%2F2020-11-18%2F1%2F0%2F0
Mie 04/11/20202020-11-04Jue 12/11/20202020-11-128ConexionesVer disponibilidad>11https://an.despegar.com/ad/1040?q=shop%2Fflights%2Fresults%2Froundtrip%2FBUE%2FNAT%2F2020-11-04%2F2020-11-12%2F1%2F0%2F0
Lun 09/11/20202020-11-09Mie 25/11/20202020-11-2516ConexionesVer disponibilidad>11https://an.despegar.com/ad/1040?q=shop%2Fflights%2Fresults%2Froundtrip%2FBUE%2FNAT%2F2020-11-09%2F2020-11-25%2F1%2F0%2F0
Lun 01/02/20212021-02-01Mar 09/02/20212021-02-098ConexionesVer disponibilidad>02https://an.despegar.com/ad/1040?q=shop%2Fflights%2Fresults%2Froundtrip%2FBUE%2FNAT%2F2021-02-01%2F2021-02-09%2F1%2F0%2F0
Mar 02/02/20212021-02-02Lun 08/02/20212021-02-086ConexionesVer disponibilidad>02https://an.despegar.com/ad/1040?q=shop%2Fflights%2Fresults%2Froundtrip%2FBUE%2FNAT%2F2021-02-02%2F2021-02-08%2F1%2F0%2F0
Mar 02/02/20212021-02-02Mie 10/02/20212021-02-108ConexionesVer disponibilidad>02https://an.despegar.com/ad/1040?q=shop%2Fflights%2Fresults%2Froundtrip%2FBUE%2FNAT%2F2021-02-02%2F2021-02-10%2F1%2F0%2F0
Jue 18/02/20212021-02-18Vie 26/02/20212021-02-268ConexionesVer disponibilidad>02https://an.despegar.com/ad/1040?q=shop%2Fflights%2Fresults%2Froundtrip%2FBUE%2FNAT%2F2021-02-18%2F2021-02-26%2F1%2F0%2F0
Lun 22/02/20212021-02-22Lun 01/03/20212021-03-017ConexionesVer disponibilidad>02https://an.despegar.com/ad/1040?q=shop%2Fflights%2Fresults%2Froundtrip%2FBUE%2FNAT%2F2021-02-22%2F2021-03-01%2F1%2F0%2F0
Sab 27/02/20212021-02-27Sab 13/03/20212021-03-1314ConexionesVer disponibilidad>02https://an.despegar.com/ad/1040?q=shop%2Fflights%2Fresults%2Froundtrip%2FBUE%2FNAT%2F2021-02-27%2F2021-03-13%2F1%2F0%2F0
Lun 01/03/20212021-03-01Dom 14/03/20212021-03-1413ConexionesVer disponibilidad>03https://an.despegar.com/ad/1040?q=shop%2Fflights%2Fresults%2Froundtrip%2FBUE%2FNAT%2F2021-03-01%2F2021-03-14%2F1%2F0%2F0
Vie 05/03/20212021-03-05Sab 20/03/20212021-03-2015ConexionesVer disponibilidad>03https://an.despegar.com/ad/1040?q=shop%2Fflights%2Fresults%2Froundtrip%2FBUE%2FNAT%2F2021-03-05%2F2021-03-20%2F1%2F0%2F0
Jue 08/04/20212021-04-08Vie 23/04/20212021-04-2315ConexionesVer disponibilidad>04https://an.despegar.com/ad/1040?q=shop%2Fflights%2Fresults%2Froundtrip%2FBUE%2FNAT%2F2021-04-08%2F2021-04-23%2F1%2F0%2F0

Es posible que la disponibilidad de vuelos hacia este destino se vea afectada debido al COVID-19. Si es tu caso, te invitamos a realizar una nueva búsqueda a través de este link.

Información general sobre Natal

Natal, que en español significa Navidad, es una ciudad brasileña localizada en el estado de Rio Grande do Norte. Atravesada por el río Potengi, la capital nordestina cuenta con playas, dunas y diferentes atracciones históricas. Anualmente recibe a dos millones de turistas y es la puerta de entrada hacia otros importantes destinos del estado.

Pasajes Aéreos y Vuelos Baratos a Natal

Descargá gratis nuestra nueva app para Android y iOS.
Suscribite a las notificaciones de Chrome y Safari.
Seguinos en Facebook, Twitter e Instagram
Suscribite a nuestro newsletter aquí.